createdAt,value
2022-08-14T00:02:21.787Z,15.00
2022-08-14T00:04:55.133Z,13.50
2022-08-14T00:07:26.433Z,13.20
2022-08-14T00:10:49.803Z,15.50
2022-08-14T00:12:56.483Z,16.60
2022-08-14T00:15:30.042Z,14.50
2022-08-14T00:18:30.756Z,14.50
2022-08-14T00:21:11.180Z,14.20
2022-08-14T00:23:42.205Z,14.60
2022-08-14T00:26:22.085Z,17.20
2022-08-14T00:28:54.775Z,18.50
2022-08-14T00:31:35.053Z,21.90
2022-08-14T00:34:36.031Z,17.60
2022-08-14T00:37:06.146Z,13.30
2022-08-14T00:39:38.362Z,13.60
2022-08-14T00:42:21.210Z,16.00
2022-08-14T00:44:59.761Z,13.70
2022-08-14T00:47:31.439Z,17.00
2022-08-14T00:50:17.496Z,15.10
2022-08-14T00:52:50.848Z,16.00
2022-08-14T00:55:21.950Z,15.50
2022-08-14T00:58:07.820Z,16.70
2022-08-14T01:00:51.373Z,15.00
2022-08-14T01:03:30.723Z,13.80
2022-08-14T01:06:01.464Z,14.60
2022-08-14T01:08:57.414Z,14.70
2022-08-14T01:11:35.633Z,16.40
2022-08-14T01:14:25.284Z,14.90
2022-08-14T01:16:57.711Z,15.40
2022-08-14T01:20:00.493Z,13.50
2022-08-14T01:22:31.131Z,13.80
2022-08-14T01:25:02.679Z,15.50
2022-08-14T01:27:36.721Z,13.80
2022-08-14T01:30:26.574Z,14.90
2022-08-14T01:32:56.900Z,16.70
2022-08-14T01:36:03.910Z,13.20
2022-08-14T01:38:19.048Z,19.10
2022-08-14T01:40:53.238Z,15.70
2022-08-14T01:43:30.599Z,16.90
2022-08-14T01:46:24.412Z,19.90
2022-08-14T01:48:57.474Z,17.50
2022-08-14T01:51:30.476Z,16.90
2022-08-14T01:54:02.017Z,14.90
2022-08-14T01:56:39.130Z,26.40
2022-08-14T01:59:18.085Z,16.10
2022-08-14T02:01:51.206Z,20.10
2022-08-14T02:04:55.996Z,18.20
2022-08-14T02:07:44.706Z,17.90
2022-08-14T02:10:15.601Z,17.30
2022-08-14T02:12:56.887Z,18.00
2022-08-14T02:15:27.895Z,16.70
2022-08-14T02:18:01.914Z,18.70
2022-08-14T02:20:34.169Z,16.70
2022-08-14T02:23:06.551Z,19.80
2022-08-14T02:25:39.448Z,16.60
2022-08-14T02:28:22.971Z,17.40
2022-08-14T02:31:02.090Z,16.90
2022-08-14T02:33:33.900Z,18.60
2022-08-14T02:37:03.421Z,19.30
2022-08-14T02:39:01.539Z,16.00
2022-08-14T02:41:36.751Z,18.30
2022-08-14T02:44:11.340Z,16.90
2022-08-14T02:46:44.865Z,15.70
2022-08-14T02:49:34.148Z,16.30
2022-08-14T02:52:55.451Z,15.70
2022-08-14T02:54:58.276Z,18.00
2022-08-14T02:57:40.387Z,17.90
2022-08-14T03:00:18.551Z,18.50
2022-08-14T03:02:59.089Z,16.70
2022-08-14T03:05:36.266Z,17.20
2022-08-14T03:08:08.839Z,18.50
2022-08-14T03:10:41.974Z,17.30
2022-08-14T03:13:21.476Z,15.80
2022-08-14T03:15:56.213Z,19.20
2022-08-14T03:18:31.772Z,16.20
2022-08-14T03:21:05.586Z,18.90
2022-08-14T03:23:38.660Z,19.50
2022-08-14T03:26:13.191Z,16.40
2022-08-14T03:28:49.878Z,18.70
2022-08-14T03:31:25.986Z,21.30
2022-08-14T03:34:00.113Z,17.60
2022-08-14T03:37:39.494Z,19.50
2022-08-14T03:39:24.223Z,22.60
2022-08-14T03:42:01.513Z,19.20
2022-08-14T03:45:26.801Z,15.90
2022-08-14T03:47:33.666Z,21.10
2022-08-14T03:50:30.766Z,21.20
2022-08-14T03:53:03.682Z,24.40
2022-08-14T03:55:34.000Z,18.50
2022-08-14T03:58:04.815Z,18.10
2022-08-14T04:00:44.244Z,18.60
2022-08-14T04:03:23.497Z,23.70
2022-08-14T04:05:55.264Z,21.50
2022-08-14T04:08:30.847Z,17.60
2022-08-14T04:11:08.005Z,20.20
2022-08-14T04:13:42.321Z,22.50
2022-08-14T04:16:13.425Z,16.30
2022-08-14T04:18:45.619Z,16.50
2022-08-14T04:21:16.976Z,18.20
2022-08-14T04:23:57.007Z,18.90
2022-08-14T04:26:42.200Z,18.70
2022-08-14T04:29:16.064Z,21.80
2022-08-14T04:33:02.925Z,20.60
2022-08-14T04:34:42.164Z,18.20
2022-08-14T04:37:30.251Z,17.90
2022-08-14T04:40:18.806Z,22.90
2022-08-14T04:43:06.564Z,20.70
2022-08-14T04:45:41.071Z,17.10
2022-08-14T04:48:39.746Z,19.40
2022-08-14T04:51:06.832Z,18.00
2022-08-14T04:53:42.943Z,18.00
2022-08-14T04:56:30.847Z,16.70
2022-08-14T04:59:10.614Z,17.60
2022-08-14T05:01:48.714Z,18.80
2022-08-14T05:04:21.389Z,18.10
2022-08-14T05:06:54.990Z,16.10
2022-08-14T05:09:29.305Z,19.30
2022-08-14T05:13:14.319Z,19.10
2022-08-14T05:14:55.517Z,17.00
2022-08-14T05:17:31.958Z,18.30
2022-08-14T05:33:33.697Z,17.20
2022-08-14T05:36:06.877Z,17.20
2022-08-14T05:38:48.364Z,18.10
2022-08-14T05:41:19.868Z,17.70
2022-08-14T05:43:52.802Z,18.30
2022-08-14T05:46:23.331Z,16.30
2022-08-14T05:48:55.317Z,14.40
2022-08-14T05:51:30.615Z,17.40
2022-08-14T05:54:11.419Z,17.50
2022-08-14T05:59:14.302Z,15.80
2022-08-14T06:01:47.341Z,13.80
2022-08-14T06:04:21.707Z,16.50
2022-08-14T06:06:52.234Z,14.80
2022-08-14T06:09:23.817Z,15.50
2022-08-14T06:11:54.132Z,12.50
2022-08-14T06:14:24.994Z,14.60
2022-08-14T06:16:57.014Z,14.00
2022-08-14T06:19:28.231Z,17.80
2022-08-14T06:22:00.166Z,14.40
2022-08-14T06:24:34.886Z,15.40
2022-08-14T06:27:10.018Z,12.90
2022-08-14T06:29:41.588Z,13.30
2022-08-14T06:32:37.807Z,14.80
2022-08-14T06:35:12.278Z,11.80
2022-08-14T06:37:47.033Z,11.90
2022-08-14T06:40:26.707Z,12.80
2022-08-14T06:43:03.355Z,10.00
2022-08-14T06:45:35.006Z,11.90
2022-08-14T06:48:14.467Z,9.70
2022-08-14T06:50:48.092Z,6.90
2022-08-14T06:53:20.092Z,7.20
2022-08-14T06:55:58.299Z,9.20
2022-08-14T06:58:32.642Z,11.60
2022-08-14T07:01:27.765Z,9.30
2022-08-14T07:04:22.455Z,11.40
2022-08-14T07:06:54.755Z,9.40
2022-08-14T07:09:43.840Z,12.20
2022-08-14T07:12:54.283Z,9.80
2022-08-14T07:15:11.067Z,9.10
2022-08-14T07:17:52.265Z,7.70
2022-08-14T07:20:30.906Z,7.80
2022-08-14T07:23:08.671Z,11.10
2022-08-14T07:25:43.793Z,6.90
2022-08-14T07:28:20.153Z,8.60
2022-08-14T07:30:51.916Z,8.30
2022-08-14T07:33:29.349Z,6.80
2022-08-14T07:36:03.373Z,7.70
2022-08-14T07:38:53.249Z,7.30
2022-08-14T07:41:23.671Z,9.60
2022-08-14T07:43:55.746Z,8.20
2022-08-14T07:46:28.532Z,7.60
2022-08-14T07:49:00.400Z,8.00
2022-08-14T07:51:34.205Z,6.90
2022-08-14T07:54:11.195Z,7.20
2022-08-14T07:56:47.582Z,8.30
2022-08-14T07:59:40.575Z,8.50
2022-08-14T08:02:17.302Z,7.30
2022-08-14T08:04:54.503Z,9.20
2022-08-14T08:07:29.851Z,10.10
2022-08-14T08:10:46.837Z,8.50
2022-08-14T08:13:17.487Z,9.70
2022-08-14T08:15:49.288Z,7.30
2022-08-14T08:18:20.583Z,6.90
2022-08-14T08:21:00.705Z,7.00
2022-08-14T08:23:40.752Z,7.20
2022-08-14T08:26:21.174Z,9.20
2022-08-14T08:28:58.097Z,11.60
2022-08-14T08:31:33.067Z,7.30
2022-08-14T08:34:07.563Z,8.80
2022-08-14T08:36:46.789Z,7.30
2022-08-14T08:39:21.981Z,8.60
2022-08-14T08:41:53.977Z,9.90
2022-08-14T08:44:33.018Z,7.80
2022-08-14T08:47:08.057Z,8.50
2022-08-14T08:49:59.307Z,8.70
2022-08-14T08:52:31.233Z,7.70
2022-08-14T08:55:04.436Z,7.80
2022-08-14T08:57:38.007Z,9.20
2022-08-14T09:00:24.312Z,7.60
2022-08-14T09:02:57.514Z,7.00
2022-08-14T09:05:29.003Z,8.50
2022-08-14T09:08:26.694Z,7.40
2022-08-14T09:11:02.503Z,8.30
2022-08-14T09:13:49.818Z,8.50
2022-08-14T09:16:23.677Z,8.80
2022-08-14T09:18:56.184Z,9.90
2022-08-14T09:21:31.101Z,7.40
2022-08-14T09:24:28.368Z,7.10
2022-08-14T09:26:53.274Z,9.80
2022-08-14T09:29:23.947Z,7.10
2022-08-14T09:32:01.767Z,7.90
2022-08-14T09:34:40.193Z,6.60
2022-08-14T09:37:36.120Z,8.10
2022-08-14T09:40:20.594Z,8.20
2022-08-14T09:42:56.033Z,8.30
2022-08-14T09:45:40.063Z,9.40
2022-08-14T09:48:29.966Z,7.20
2022-08-14T09:54:19.207Z,7.20
2022-08-14T09:56:57.118Z,7.60
2022-08-14T09:59:40.673Z,7.90
2022-08-14T10:02:27.850Z,10.00
2022-08-14T10:05:02.617Z,9.50
2022-08-14T10:07:35.198Z,7.20
2022-08-14T10:10:23.170Z,8.60
2022-08-14T10:12:58.401Z,6.90
2022-08-14T10:15:30.416Z,8.50
2022-08-14T10:18:09.552Z,7.10
2022-08-14T10:20:55.932Z,9.20
2022-08-14T10:23:30.049Z,8.50
2022-08-14T10:26:08.267Z,7.60
2022-08-14T10:29:18.273Z,7.50
2022-08-14T10:31:44.714Z,7.10
2022-08-14T10:34:25.955Z,7.00
2022-08-14T10:37:14.887Z,6.00
2022-08-14T10:40:05.298Z,8.30
2022-08-14T10:42:41.623Z,6.60
2022-08-14T10:45:21.951Z,5.80
2022-08-14T10:48:09.657Z,7.80
2022-08-14T10:50:50.509Z,6.20
2022-08-14T10:53:32.967Z,6.80
2022-08-14T10:56:07.129Z,6.90
2022-08-14T10:59:01.631Z,5.70
2022-08-14T11:01:40.848Z,5.90
2022-08-14T11:04:25.368Z,7.50
2022-08-14T11:06:57.879Z,7.30
2022-08-14T11:09:32.146Z,5.10
2022-08-14T11:12:34.224Z,6.70
2022-08-14T11:14:59.097Z,5.90
2022-08-14T11:17:33.388Z,5.30
2022-08-14T11:20:05.955Z,5.50
2022-08-14T11:22:52.967Z,5.30
2022-08-14T11:25:36.874Z,5.50
2022-08-14T11:28:19.393Z,6.40
2022-08-14T11:30:54.172Z,5.10
2022-08-14T11:33:26.286Z,4.50
2022-08-14T11:36:00.759Z,4.90
2022-08-14T11:38:37.993Z,5.30
2022-08-14T11:41:09.373Z,5.60
2022-08-14T11:43:49.461Z,6.10
2022-08-14T11:46:30.539Z,5.30
2022-08-14T11:49:10.813Z,5.80
2022-08-14T11:51:54.419Z,6.70
2022-08-14T11:54:34.511Z,5.00
2022-08-14T11:57:06.544Z,4.90
2022-08-14T11:59:38.544Z,6.20
2022-08-14T12:02:39.019Z,4.70
2022-08-14T12:05:09.318Z,5.20
2022-08-14T12:07:50.403Z,6.00
2022-08-14T12:10:25.488Z,6.40
2022-08-14T12:12:58.287Z,5.20
2022-08-14T12:15:32.789Z,5.70
2022-08-14T12:18:04.650Z,5.70
2022-08-14T12:20:37.697Z,5.40
2022-08-14T12:23:23.727Z,5.70
2022-08-14T12:26:12.151Z,4.50
2022-08-14T12:29:05.849Z,4.10
2022-08-14T12:31:44.472Z,5.20
2022-08-14T12:34:20.438Z,4.90
2022-08-14T12:37:02.624Z,4.30
2022-08-14T12:39:39.626Z,4.20
2022-08-14T12:42:11.998Z,5.80
2022-08-14T12:45:04.102Z,4.80
2022-08-14T12:47:35.278Z,5.20
2022-08-14T12:50:06.350Z,4.50
2022-08-14T12:52:47.326Z,4.30
2022-08-14T12:58:29.649Z,4.60
2022-08-14T13:01:16.791Z,4.30
2022-08-14T13:03:51.770Z,4.10
2022-08-14T13:06:27.646Z,3.90
2022-08-14T13:09:00.017Z,4.20
2022-08-14T13:11:41.113Z,5.20
2022-08-14T13:14:17.339Z,4.50
2022-08-14T13:16:50.227Z,5.60
2022-08-14T13:19:24.331Z,7.30
2022-08-14T13:22:04.884Z,6.70
2022-08-14T13:24:39.437Z,6.50
2022-08-14T13:27:11.189Z,7.20
2022-08-14T13:29:46.542Z,7.80
2022-08-14T13:32:18.892Z,7.90
2022-08-14T13:34:52.779Z,7.20
2022-08-14T13:37:24.195Z,7.10
2022-08-14T13:39:56.636Z,7.40
2022-08-14T13:42:30.563Z,7.70
2022-08-14T13:45:02.941Z,6.90
2022-08-14T13:47:35.239Z,8.40
2022-08-14T13:50:08.335Z,7.60
2022-08-14T13:52:52.614Z,6.50
2022-08-14T13:55:28.559Z,8.20
2022-08-14T13:58:03.994Z,10.60
2022-08-14T14:00:51.819Z,7.80
2022-08-14T14:03:30.387Z,8.80
2022-08-14T14:06:03.826Z,9.20
2022-08-14T14:08:47.564Z,6.20
2022-08-14T14:11:21.209Z,7.00
2022-08-14T14:13:51.957Z,8.30
2022-08-14T14:16:30.088Z,9.20
2022-08-14T14:19:10.450Z,8.90
2022-08-14T14:21:42.068Z,6.80
2022-08-14T14:24:15.273Z,7.80
2022-08-14T14:26:50.128Z,7.20
2022-08-14T14:29:24.221Z,7.60
2022-08-14T14:31:58.745Z,7.60
2022-08-14T14:34:34.738Z,9.50
2022-08-14T14:37:06.973Z,8.10
2022-08-14T14:40:53.927Z,7.80
2022-08-14T14:42:32.227Z,10.50
2022-08-14T14:45:07.824Z,9.60
2022-08-14T14:47:39.262Z,7.40
2022-08-14T14:50:11.414Z,7.80
2022-08-14T14:52:42.509Z,8.30
2022-08-14T14:55:16.814Z,11.80
2022-08-14T14:57:52.022Z,8.50
2022-08-14T15:00:25.535Z,11.50
2022-08-14T15:03:01.560Z,8.00
2022-08-14T15:05:33.141Z,9.90
2022-08-14T15:08:04.012Z,7.60
2022-08-14T15:10:39.982Z,8.00
2022-08-14T15:13:11.175Z,10.90
2022-08-14T15:15:43.464Z,9.10
2022-08-14T15:18:36.320Z,11.50
2022-08-14T15:21:04.351Z,7.90
2022-08-14T15:23:44.008Z,9.10
2022-08-14T15:26:24.070Z,8.00
2022-08-14T15:29:05.632Z,11.10
2022-08-14T15:31:37.521Z,8.90
2022-08-14T15:34:43.194Z,8.40
2022-08-14T15:37:03.612Z,9.20
2022-08-14T15:39:35.725Z,9.80
2022-08-14T15:42:16.220Z,8.60
2022-08-14T15:44:58.048Z,9.60
2022-08-14T15:47:33.119Z,11.20
2022-08-14T15:50:08.745Z,9.20
2022-08-14T15:52:44.747Z,9.60
2022-08-14T15:55:16.411Z,10.90
2022-08-14T15:58:02.581Z,11.10
2022-08-14T16:00:54.658Z,10.60
2022-08-14T16:03:34.557Z,9.90
2022-08-14T16:06:11.182Z,10.10
2022-08-14T16:08:46.540Z,14.00
2022-08-14T16:11:20.555Z,9.70
2022-08-14T16:13:57.649Z,11.60
2022-08-14T16:16:48.142Z,11.30
2022-08-14T16:19:23.695Z,10.30
2022-08-14T16:22:01.426Z,10.40
2022-08-14T16:25:00.134Z,9.40
2022-08-14T16:27:37.910Z,9.30
2022-08-14T16:30:25.025Z,9.80
2022-08-14T16:32:59.301Z,11.20
2022-08-14T16:35:41.894Z,10.00
2022-08-14T16:38:45.716Z,11.10
2022-08-14T16:41:23.224Z,10.80
2022-08-14T16:43:59.210Z,12.30
2022-08-14T16:46:32.877Z,11.90
2022-08-14T16:49:05.473Z,13.50
2022-08-14T16:51:39.820Z,12.80
2022-08-14T16:54:33.980Z,11.70
2022-08-14T16:57:16.374Z,11.80
2022-08-14T16:59:52.836Z,12.20
2022-08-14T17:02:36.288Z,14.20
2022-08-14T17:05:24.000Z,12.10
2022-08-14T17:08:32.613Z,11.60
2022-08-14T17:11:09.865Z,11.70
2022-08-14T17:13:57.760Z,11.90
2022-08-14T17:16:37.148Z,12.50
2022-08-14T17:19:13.804Z,13.10
2022-08-14T17:21:47.449Z,12.50
2022-08-14T17:24:56.885Z,15.00
2022-08-14T17:27:10.911Z,14.20
2022-08-14T17:29:58.750Z,15.40
2022-08-14T17:32:56.782Z,14.70
2022-08-14T17:35:58.030Z,18.40
2022-08-14T17:38:38.513Z,17.00
2022-08-14T17:41:32.822Z,15.60
2022-08-14T17:44:20.153Z,13.10
2022-08-14T17:46:56.999Z,14.50
2022-08-14T17:49:31.977Z,15.60
2022-08-14T17:52:07.615Z,15.40
2022-08-14T17:54:52.945Z,13.40
2022-08-14T17:57:40.658Z,16.10
2022-08-14T18:00:14.834Z,15.50
2022-08-14T18:02:50.708Z,15.60
2022-08-14T18:06:08.448Z,15.30
2022-08-14T18:08:32.886Z,16.00
2022-08-14T18:11:07.413Z,19.70
2022-08-14T18:13:50.794Z,20.10
2022-08-14T18:16:22.949Z,14.50
2022-08-14T18:18:53.698Z,15.20
2022-08-14T18:21:56.881Z,22.10
2022-08-14T18:24:28.736Z,18.10
2022-08-14T18:27:09.451Z,16.30
2022-08-14T18:29:54.758Z,15.40
2022-08-14T18:32:47.262Z,18.40
2022-08-14T18:35:46.037Z,22.30
2022-08-14T18:38:25.805Z,17.50
2022-08-14T18:41:18.468Z,17.10
2022-08-14T18:43:59.109Z,17.50
2022-08-14T18:47:00.187Z,17.10
2022-08-14T18:49:21.488Z,17.80
2022-08-14T18:54:33.006Z,18.10
2022-08-14T18:57:05.840Z,18.50
2022-08-14T18:59:43.272Z,18.70
2022-08-14T19:02:42.371Z,16.90
2022-08-14T19:05:14.301Z,17.20
2022-08-14T19:07:48.407Z,18.40
2022-08-14T19:10:31.868Z,22.90
2022-08-14T19:13:11.825Z,21.80
2022-08-14T19:15:44.003Z,17.50
2022-08-14T19:18:32.531Z,18.70
2022-08-14T19:21:23.999Z,21.40
2022-08-14T19:24:27.114Z,18.80
2022-08-14T19:29:37.920Z,21.90
2022-08-14T19:32:24.068Z,19.10
2022-08-14T19:34:54.960Z,17.60
2022-08-14T19:37:52.288Z,21.40
2022-08-14T19:40:34.254Z,19.10
2022-08-14T19:43:09.100Z,18.10
2022-08-14T19:45:40.490Z,17.80
2022-08-14T19:48:15.861Z,20.10
2022-08-14T19:50:47.488Z,17.00
2022-08-14T19:53:18.479Z,18.20
2022-08-14T19:55:58.650Z,17.30
2022-08-14T19:58:55.212Z,16.80
2022-08-14T20:01:37.696Z,19.60
2022-08-14T20:04:44.850Z,18.80
2022-08-14T20:07:04.381Z,21.90
2022-08-14T20:11:04.011Z,17.20
2022-08-14T20:12:36.462Z,21.00
2022-08-14T20:15:27.902Z,20.50
2022-08-14T20:18:48.772Z,20.40
2022-08-14T20:21:17.000Z,19.30
2022-08-14T20:23:49.463Z,20.60
2022-08-14T20:26:31.308Z,21.40
2022-08-14T20:29:07.193Z,20.00
2022-08-14T20:31:39.898Z,20.40
2022-08-14T20:34:24.954Z,20.30
2022-08-14T20:37:09.880Z,18.70
2022-08-14T20:39:43.559Z,21.70
2022-08-14T20:42:35.119Z,19.50
2022-08-14T20:45:23.827Z,21.00
2022-08-14T20:47:58.571Z,21.60
2022-08-14T20:50:32.246Z,19.40
2022-08-14T20:53:05.637Z,21.50
2022-08-14T20:55:41.644Z,18.20
2022-08-14T20:58:42.176Z,18.10
2022-08-14T21:01:32.644Z,19.30
2022-08-14T21:04:12.078Z,19.80
2022-08-14T21:07:24.462Z,15.80
2022-08-14T21:10:05.060Z,17.40
2022-08-14T21:12:35.768Z,17.50
2022-08-14T21:15:10.176Z,15.70
2022-08-14T21:17:43.269Z,18.60
2022-08-14T21:20:26.547Z,17.60
2022-08-14T21:23:01.300Z,14.30
2022-08-14T21:25:32.558Z,18.20
2022-08-14T21:28:06.242Z,14.80
2022-08-14T21:30:50.972Z,14.20
2022-08-14T21:33:23.680Z,16.50
2022-08-14T21:35:55.569Z,15.20
2022-08-14T21:38:33.964Z,17.70
2022-08-14T21:41:42.371Z,15.70
2022-08-14T21:44:17.386Z,14.90
2022-08-14T21:46:53.333Z,15.00
2022-08-14T21:49:33.818Z,18.50
2022-08-14T21:52:51.764Z,15.80
2022-08-14T21:55:09.569Z,17.00
2022-08-14T21:58:38.394Z,14.90
2022-08-14T22:00:39.677Z,15.50
2022-08-14T22:03:17.341Z,12.40
2022-08-14T22:05:50.045Z,13.70
2022-08-14T22:08:26.615Z,13.80
2022-08-14T22:10:59.087Z,12.70
2022-08-14T22:13:32.540Z,12.80
2022-08-14T22:16:03.516Z,16.50
2022-08-14T22:18:34.417Z,13.30
2022-08-14T22:21:08.263Z,15.50
2022-08-14T22:23:47.453Z,15.50
2022-08-14T22:26:22.701Z,17.30
2022-08-14T22:29:01.321Z,20.60
2022-08-14T22:31:35.059Z,15.50
